Time,TemperatureF,DewpointF,PressureIn,WindDirection,WindDirectionDegrees,WindSpeedMPH,WindSpeedGustMPH,Humidity,HourlyPrecipIn,Conditions,Clouds,dailyrainin,SoftwareType,DateUTC
2013-10-10 00:01:00,54.7,47.9,29.96,South,180,0.0,1.1,78,0.00,,,0.00,WUHU21623XXSP,2013-10-10 05:01:00,
2013-10-10 00:06:00,54.0,47.6,29.96,South,180,0.0,0.0,79,0.00,,,0.00,WUHU21623XXSP,2013-10-10 05:06:00,
2013-10-10 00:11:00,53.4,47.5,29.96,South,180,1.1,2.0,80,0.00,,,0.00,WUHU21623XXSP,2013-10-10 05:11:00,
2013-10-10 00:16:00,53.2,47.6,29.96,South,180,1.6,2.0,81,0.00,,,0.00,WUHU21623XXSP,2013-10-10 05:16:00,
2013-10-10 00:21:00,52.9,47.2,29.96,SSE,157,2.0,2.5,81,0.00,,,0.00,WUHU21623XXSP,2013-10-10 05:21:00,
2013-10-10 00:26:00,52.7,47.4,29.96,SSE,157,0.7,2.5,82,0.00,,,0.00,WUHU21623XXSP,2013-10-10 05:26:00,
2013-10-10 00:31:00,52.9,47.6,29.96,SSE,157,1.3,2.2,82,0.00,,,0.00,WUHU21623XXSP,2013-10-10 05:31:00,
2013-10-10 00:36:00,53.4,48.1,29.96,SSE,157,0.4,2.0,82,0.00,,,0.00,WUHU21623XXSP,2013-10-10 05:36:00,
2013-10-10 00:41:00,53.8,48.1,29.96,SSE,157,1.3,2.5,81,0.00,,,0.00,WUHU21623XXSP,2013-10-10 05:41:00,
2013-10-10 00:46:00,54.3,48.6,29.96,SSE,157,0.0,3.1,81,0.00,,,0.00,WUHU21623XXSP,2013-10-10 05:46:00,
2013-10-10 00:51:00,54.3,48.6,29.96,SSE,157,1.1,3.1,81,0.00,,,0.00,WUHU21623XXSP,2013-10-10 05:51:00,
2013-10-10 00:56:00,54.1,48.5,29.96,SSE,157,0.0,2.2,81,0.00,,,0.00,WUHU21623XXSP,2013-10-10 05:56:00,
2013-10-10 01:01:00,54.0,48.3,29.96,SSE,157,0.0,1.1,81,0.00,,,0.00,WUHU21623XXSP,2013-10-10 06:01:00,
2013-10-10 01:06:00,54.0,48.3,29.96,SSE,157,0.0,0.4,81,0.00,,,0.00,WUHU21623XXSP,2013-10-10 06:06:00,
2013-10-10 01:11:00,54.1,48.5,29.96,SSE,157,0.0,0.0,81,0.00,,,0.00,WUHU21623XXSP,2013-10-10 06:11:00,
2013-10-10 01:16:00,54.0,48.3,29.96,SSE,157,0.0,0.0,81,0.00,,,0.00,WUHU21623XXSP,2013-10-10 06:16:00,
2013-10-10 01:21:00,54.0,48.3,29.96,SSE,157,0.0,0.0,81,0.00,,,0.00,WUHU21623XXSP,2013-10-10 06:21:00,
2013-10-10 01:26:00,53.8,48.4,29.96,SSE,157,0.0,0.0,82,0.00,,,0.00,WUHU21623XXSP,2013-10-10 06:26:00,
2013-10-10 01:31:00,53.8,48.4,29.96,SSE,157,0.0,1.3,82,0.00,,,0.00,WUHU21623XXSP,2013-10-10 06:31:00,
2013-10-10 01:36:00,53.8,48.4,29.96,SSE,157,0.0,1.6,82,0.00,,,0.00,WUHU21623XXSP,2013-10-10 06:36:00,
2013-10-10 01:41:00,53.8,48.4,29.96,SSE,157,0.0,1.6,82,0.00,,,0.00,WUHU21623XXSP,2013-10-10 06:41:00,
2013-10-10 01:46:00,53.6,48.3,29.96,SSE,157,0.0,1.8,82,0.00,,,0.00,WUHU21623XXSP,2013-10-10 06:46:00,
2013-10-10 01:51:00,53.8,48.4,29.96,SSE,157,0.0,1.8,82,0.00,,,0.00,WUHU21623XXSP,2013-10-10 06:51:00,
2013-10-10 01:56:00,53.8,48.4,29.96,SSE,157,0.0,0.9,82,0.00,,,0.00,WUHU21623XXSP,2013-10-10 06:56:00,
2013-10-10 02:01:00,54.0,48.6,29.96,SSE,157,0.0,0.9,82,0.00,,,0.00,WUHU21623XXSP,2013-10-10 07:01:00,
2013-10-10 02:07:00,53.4,48.1,29.96,SSE,157,0.0,0.1,82,0.00,,,0.00,WUHU21623XXSP,2013-10-10 07:07:00,
2013-10-10 02:12:00,53.2,47.9,29.96,SSE,157,0.0,2.5,82,0.00,,,0.00,WUHU21623XXSP,2013-10-10 07:12:00,
2013-10-10 02:17:00,53.1,47.9,29.96,SSE,157,0.0,2.5,82,0.00,,,0.00,WUHU21623XXSP,2013-10-10 07:17:00,
2013-10-10 02:22:00,53.2,47.9,29.96,SSE,157,0.0,1.8,82,0.00,,,0.00,WUHU21623XXSP,2013-10-10 07:22:00,
2013-10-10 02:27:00,53.2,47.9,29.96,SSE,157,1.6,2.5,82,0.00,,,0.00,WUHU21623XXSP,2013-10-10 07:27:00,
2013-10-10 02:32:00,52.9,47.6,29.96,SSE,157,0.0,2.5,82,0.00,,,0.00,WUHU21623XXSP,2013-10-10 07:32:00,
2013-10-10 02:37:00,52.9,47.6,29.96,SSE,157,0.3,1.8,82,0.00,,,0.00,WUHU21623XXSP,2013-10-10 07:37:00,
2013-10-10 02:42:00,52.9,47.6,29.96,SSE,157,0.0,1.8,82,0.00,,,0.00,WUHU21623XXSP,2013-10-10 07:42:00,
2013-10-10 02:47:00,53.2,47.9,29.96,SSE,157,0.0,1.8,82,0.00,,,0.00,WUHU21623XXSP,2013-10-10 07:47:00,
2013-10-10 02:52:00,53.4,47.8,29.95,SSE,157,0.0,1.6,81,0.00,,,0.00,WUHU21623XXSP,2013-10-10 07:52:00,
2013-10-10 02:57:00,54.0,48.0,29.95,SSE,157,0.0,0.2,80,0.00,,,0.00,WUHU21623XXSP,2013-10-10 07:57:00,
2013-10-10 03:02:00,54.1,47.8,29.95,SSE,157,0.0,0.0,79,0.00,,,0.00,WUHU21623XXSP,2013-10-10 08:02:00,
2013-10-10 03:07:00,54.3,48.0,29.95,North,0,0.0,0.0,79,0.00,,,0.00,WUHU21623XXSP,2013-10-10 08:07:00,
2013-10-10 03:12:00,54.1,47.8,29.95,SSE,157,0.0,0.7,79,0.00,,,0.00,WUHU21623XXSP,2013-10-10 08:12:00,
2013-10-10 03:17:00,53.8,47.8,29.95,SSE,157,0.0,0.7,80,0.00,,,0.00,WUHU21623XXSP,2013-10-10 08:17:00,
2013-10-10 03:22:00,53.4,47.5,29.95,SSE,157,0.0,0.0,80,0.00,,,0.00,WUHU21623XXSP,2013-10-10 08:22:00,
2013-10-10 03:27:00,53.2,47.6,29.95,SSE,157,0.0,0.0,81,0.00,,,0.00,WUHU21623XXSP,2013-10-10 08:27:00,
2013-10-10 03:32:00,52.9,47.2,29.95,SSE,157,0.0,0.0,81,0.00,,,0.00,WUHU21623XXSP,2013-10-10 08:32:00,
2013-10-10 03:37:00,52.3,47.0,29.95,SSE,157,0.0,0.0,82,0.00,,,0.00,WUHU21623XXSP,2013-10-10 08:37:00,
2013-10-10 03:42:00,52.3,47.0,29.95,SSE,157,0.9,0.9,82,0.00,,,0.00,WUHU21623XXSP,2013-10-10 08:42:00,
2013-10-10 03:47:00,52.9,47.2,29.96,SSE,157,0.7,1.8,81,0.00,,,0.00,WUHU21623XXSP,2013-10-10 08:47:00,
2013-10-10 03:52:00,53.1,47.1,29.96,SSE,157,0.0,1.8,80,0.00,,,0.00,WUHU21623XXSP,2013-10-10 08:52:00,
2013-10-10 03:57:00,53.2,47.2,29.96,SSE,157,0.4,1.3,80,0.00,,,0.00,WUHU21623XXSP,2013-10-10 08:57:00,
2013-10-10 04:02:00,53.2,47.3,29.96,SSE,157,0.0,1.1,80,0.00,,,0.00,WUHU21623XXSP,2013-10-10 09:02:00,
2013-10-10 04:07:00,53.2,47.3,29.96,SSE,157,0.0,2.0,80,0.00,,,0.00,WUHU21623XXSP,2013-10-10 09:07:00,
2013-10-10 04:12:00,53.4,47.1,29.96,SSE,157,0.0,2.0,79,0.00,,,0.00,WUHU21623XXSP,2013-10-10 09:12:00,
2013-10-10 04:17:00,53.8,47.1,29.96,SSE,157,0.7,1.6,78,0.00,,,0.00,WUHU21623XXSP,2013-10-10 09:17:00,
2013-10-10 04:22:00,53.4,46.8,29.96,SSE,157,0.0,1.6,78,0.00,,,0.00,WUHU21623XXSP,2013-10-10 09:22:00,
2013-10-10 04:27:00,53.8,47.1,29.96,SSE,157,0.0,2.7,78,0.00,,,0.00,WUHU21623XXSP,2013-10-10 09:27:00,
2013-10-10 04:32:00,53.6,46.9,29.96,SSE,157,0.9,2.7,78,0.00,,,0.00,WUHU21623XXSP,2013-10-10 09:32:00,
2013-10-10 04:37:00,53.8,47.1,29.96,SSE,157,0.0,1.8,78,0.00,,,0.00,WUHU21623XXSP,2013-10-10 09:37:00,
2013-10-10 04:42:00,53.8,47.1,29.96,SE,135,0.7,2.2,78,0.00,,,0.00,WUHU21623XXSP,2013-10-10 09:42:00,
2013-10-10 04:47:00,53.8,46.7,29.96,SE,135,0.9,4.3,77,0.00,,,0.00,WUHU21623XXSP,2013-10-10 09:47:00,
2013-10-10 04:52:00,53.4,46.8,29.96,SE,135,2.5,4.3,78,0.00,,,0.00,WUHU21623XXSP,2013-10-10 09:52:00,
2013-10-10 04:57:00,53.4,46.8,29.96,SE,135,0.0,3.1,78,0.00,,,0.00,WUHU21623XXSP,2013-10-10 09:57:00,
2013-10-10 05:02:00,53.2,46.6,29.95,SE,135,1.1,3.1,78,0.00,,,0.00,WUHU21623XXSP,2013-10-10 10:02:00,
2013-10-10 05:07:00,53.2,46.6,29.96,SE,135,1.1,2.0,78,0.00,,,0.00,WUHU21623XXSP,2013-10-10 10:07:00,
2013-10-10 05:12:00,52.9,46.2,29.95,SE,135,1.6,2.7,78,0.00,,,0.00,WUHU21623XXSP,2013-10-10 10:12:00,
2013-10-10 05:17:00,52.9,46.2,29.95,SE,135,0.0,2.7,78,0.00,,,0.00,WUHU21623XXSP,2013-10-10 10:17:00,
2013-10-10 05:22:00,52.9,46.2,29.95,SSE,157,0.0,4.3,78,0.00,,,0.00,WUHU21623XXSP,2013-10-10 10:22:00,
2013-10-10 05:27:00,52.7,46.1,29.95,SSE,157,1.3,2.2,78,0.00,,,0.00,WUHU21623XXSP,2013-10-10 10:27:00,
2013-10-10 05:32:00,52.5,46.2,29.95,SSE,157,2.7,2.9,79,0.00,,,0.00,WUHU21623XXSP,2013-10-10 10:32:00,
2013-10-10 05:37:00,52.5,46.2,29.95,SSE,157,1.0,2.9,79,0.00,,,0.00,WUHU21623XXSP,2013-10-10 10:37:00,
2013-10-10 05:42:00,52.5,45.9,29.95,SSE,155,0.7,2.7,78,0.00,,,0.00,WUHU21623XXSP,2013-10-10 10:42:00,
2013-10-10 05:47:00,52.3,46.0,29.95,SSE,151,0.3,2.7,79,0.00,,,0.00,WUHU21623XXSP,2013-10-10 10:47:00,
2013-10-10 05:52:00,51.4,45.5,29.95,SE,135,0.0,0.3,80,0.00,,,0.00,WUHU21623XXSP,2013-10-10 10:52:00,
2013-10-10 05:57:00,51.1,45.4,29.95,SE,135,0.0,0.0,81,0.00,,,0.00,WUHU21623XXSP,2013-10-10 10:57:00,
2013-10-10 06:02:00,51.4,45.5,29.95,SE,135,0.0,1.1,80,0.00,,,0.00,WUHU21623XXSP,2013-10-10 11:02:00,
2013-10-10 06:07:00,51.1,45.4,29.95,SE,135,0.0,1.8,81,0.00,,,0.00,WUHU21623XXSP,2013-10-10 11:07:00,
2013-10-10 06:12:00,51.1,45.4,29.95,ESE,112,0.0,1.8,81,0.00,,,0.00,WUHU21623XXSP,2013-10-10 11:12:00,
2013-10-10 06:17:00,50.7,45.1,29.95,ESE,112,0.0,0.1,81,0.00,,,0.00,WUHU21623XXSP,2013-10-10 11:17:00,
2013-10-10 06:22:00,50.7,45.1,29.95,ESE,112,0.0,0.0,81,0.00,,,0.00,WUHU21623XXSP,2013-10-10 11:22:00,
2013-10-10 06:27:00,50.7,45.1,29.95,ESE,112,0.0,0.7,81,0.00,,,0.00,WUHU21623XXSP,2013-10-10 11:27:00,
2013-10-10 06:32:00,50.7,44.8,29.94,SE,135,0.0,1.1,80,0.00,,,0.00,WUHU21623XXSP,2013-10-10 11:32:00,
2013-10-10 06:37:00,50.5,44.9,29.94,SSE,157,0.0,1.3,81,0.00,,,0.00,WUHU21623XXSP,2013-10-10 11:37:00,
2013-10-10 06:42:00,50.5,44.9,29.94,SSE,157,0.0,2.2,81,0.00,,,0.00,WUHU21623XXSP,2013-10-10 11:42:00,
2013-10-10 06:47:00,50.5,44.9,29.94,SSE,157,0.0,2.7,81,0.00,,,0.00,WUHU21623XXSP,2013-10-10 11:47:00,
2013-10-10 06:52:00,50.5,44.9,29.94,SSE,157,0.0,2.7,81,0.00,,,0.00,WUHU21623XXSP,2013-10-10 11:52:00,
2013-10-10 06:57:00,50.5,44.9,29.94,SSE,157,1.3,3.8,81,0.00,,,0.00,WUHU21623XXSP,2013-10-10 11:57:00,
2013-10-10 07:02:00,50.2,44.9,29.94,SSE,157,0.0,3.8,82,0.00,,,0.00,WUHU21623XXSP,2013-10-10 12:02:00,
2013-10-10 07:07:00,50.4,44.7,29.94,SE,135,0.0,3.1,81,0.00,,,0.00,WUHU21623XXSP,2013-10-10 12:07:00,
2013-10-10 07:12:00,50.4,44.7,29.94,SE,135,0.0,2.2,81,0.00,,,0.00,WUHU21623XXSP,2013-10-10 12:12:00,
2013-10-10 07:17:00,50.2,44.5,29.94,SE,135,0.0,1.8,81,0.00,,,0.00,WUHU21623XXSP,2013-10-10 12:17:00,
2013-10-10 07:22:00,49.8,44.5,29.94,SE,135,0.0,0.0,82,0.00,,,0.00,WUHU21623XXSP,2013-10-10 12:22:00,
2013-10-10 07:27:00,49.6,44.3,29.94,SE,135,0.0,1.1,82,0.00,,,0.00,WUHU21623XXSP,2013-10-10 12:27:00,
2013-10-10 07:32:00,49.3,44.3,29.94,SE,135,0.0,1.1,83,0.00,,,0.00,WUHU21623XXSP,2013-10-10 12:32:00,
2013-10-10 07:37:00,49.6,44.3,29.94,South,180,0.0,0.0,82,0.00,,,0.00,WUHU21623XXSP,2013-10-10 12:37:00,
2013-10-10 07:42:00,49.8,44.5,29.94,SE,135,2.9,3.8,82,0.00,,,0.00,WUHU21623XXSP,2013-10-10 12:42:00,
2013-10-10 07:47:00,50.2,44.9,29.94,SE,135,0.0,3.8,82,0.00,,,0.00,WUHU21623XXSP,2013-10-10 12:47:00,
2013-10-10 07:52:00,50.4,44.7,29.93,SSE,157,0.0,3.1,81,0.00,,,0.00,WUHU21623XXSP,2013-10-10 12:52:00,
2013-10-10 07:57:00,50.4,44.7,29.94,SSE,157,0.0,3.1,81,0.00,,,0.00,WUHU21623XXSP,2013-10-10 12:57:00,
2013-10-10 08:02:00,50.5,44.6,29.93,SSE,157,0.0,3.8,80,0.00,,,0.00,WUHU21623XXSP,2013-10-10 13:02:00,
2013-10-10 08:07:00,50.7,44.8,29.93,SSE,157,1.1,3.8,80,0.00,,,0.00,WUHU21623XXSP,2013-10-10 13:07:00,
2013-10-10 08:12:00,51.1,45.1,29.93,SE,135,1.3,3.1,80,0.00,,,0.00,WUHU21623XXSP,2013-10-10 13:12:00,
2013-10-10 08:17:00,51.4,45.2,29.94,South,180,0.2,4.0,79,0.00,,,0.00,WUHU21623XXSP,2013-10-10 13:17:00,
2013-10-10 08:22:00,51.6,45.3,29.93,SSE,157,1.3,5.6,79,0.00,,,0.00,WUHU21623XXSP,2013-10-10 13:22:00,
2013-10-10 08:27:00,51.8,45.2,29.93,South,180,2.0,5.6,78,0.00,,,0.00,WUHU21623XXSP,2013-10-10 13:27:00,
2013-10-10 08:32:00,52.2,45.2,29.93,SE,135,2.2,6.0,77,0.00,,,0.00,WUHU21623XXSP,2013-10-10 13:32:00,
2013-10-10 08:37:00,52.2,45.5,29.93,SSE,157,4.0,6.0,78,0.00,,,0.00,WUHU21623XXSP,2013-10-10 13:37:00,
2013-10-10 08:42:00,52.3,45.7,29.93,SSE,157,2.0,6.3,78,0.00,,,0.00,WUHU21623XXSP,2013-10-10 13:42:00,
2013-10-10 08:47:00,52.5,45.5,29.93,SE,135,2.5,6.3,77,0.00,,,0.00,WUHU21623XXSP,2013-10-10 13:47:00,
2013-10-10 08:52:00,52.7,45.7,29.93,SSE,157,3.6,6.7,77,0.00,,,0.00,WUHU21623XXSP,2013-10-10 13:52:00,
2013-10-10 08:57:00,52.9,45.9,29.93,SE,135,2.0,6.7,77,0.00,,,0.00,WUHU21623XXSP,2013-10-10 13:57:00,
2013-10-10 09:02:00,53.4,46.0,29.93,South,180,4.9,5.6,76,0.00,,,0.00,WUHU21623XXSP,2013-10-10 14:02:00,
2013-10-10 09:07:00,53.8,46.4,29.93,SSE,157,2.2,6.9,76,0.00,,,0.00,WUHU21623XXSP,2013-10-10 14:07:00,
2013-10-10 09:12:00,54.0,46.2,29.93,SSE,157,2.9,6.9,75,0.00,,,0.00,WUHU21623XXSP,2013-10-10 14:12:00,
2013-10-10 09:17:00,54.3,46.2,29.93,SE,135,1.6,5.1,74,0.00,,,0.00,WUHU21623XXSP,2013-10-10 14:17:00,
2013-10-10 09:22:00,55.0,46.5,29.93,SE,135,4.0,5.6,73,0.00,,,0.00,WUHU21623XXSP,2013-10-10 14:22:00,
2013-10-10 09:27:00,55.6,46.7,29.93,SSE,157,4.3,7.4,72,0.00,,,0.00,WUHU21623XXSP,2013-10-10 14:27:00,
2013-10-10 09:32:00,56.3,47.0,29.93,East,90,2.2,7.4,71,0.00,,,0.00,WUHU21623XXSP,2013-10-10 14:32:00,
2013-10-10 09:37:00,57.0,47.7,29.93,SE,135,5.6,8.1,71,0.00,,,0.00,WUHU21623XXSP,2013-10-10 14:37:00,
2013-10-10 09:42:00,57.6,47.4,29.93,SE,135,3.8,8.1,69,0.00,,,0.00,WUHU21623XXSP,2013-10-10 14:42:00,
2013-10-10 09:47:00,57.9,47.8,29.93,SSE,157,4.7,7.8,69,0.00,,,0.00,WUHU21623XXSP,2013-10-10 14:47:00,
2013-10-10 09:52:00,58.1,47.6,29.93,SE,135,2.7,7.8,68,0.00,,,0.00,WUHU21623XXSP,2013-10-10 14:52:00,
2013-10-10 09:57:00,58.8,47.9,29.93,SSE,157,4.0,6.5,67,0.00,,,0.00,WUHU21623XXSP,2013-10-10 14:57:00,
2013-10-10 10:02:00,59.2,48.2,29.93,SSE,157,2.7,6.5,67,0.00,,,0.00,WUHU21623XXSP,2013-10-10 15:02:00,
2013-10-10 10:07:00,60.1,48.7,29.93,SSE,157,3.4,5.8,66,0.00,,,0.00,WUHU21623XXSP,2013-10-10 15:07:00,
2013-10-10 10:12:00,60.4,48.7,29.93,South,180,0.0,6.3,65,0.00,,,0.00,WUHU21623XXSP,2013-10-10 15:12:00,
2013-10-10 10:17:00,61.0,48.8,29.93,SSE,157,0.7,6.3,64,0.00,,,0.00,WUHU21623XXSP,2013-10-10 15:17:00,
2013-10-10 10:22:00,61.3,48.3,29.93,SE,135,4.9,8.1,62,0.00,,,0.00,WUHU21623XXSP,2013-10-10 15:22:00,
2013-10-10 10:27:00,61.3,48.3,29.93,SSE,157,3.8,8.1,62,0.00,,,0.00,WUHU21623XXSP,2013-10-10 15:27:00,
2013-10-10 10:32:00,62.1,49.3,29.93,SE,135,0.0,7.4,63,0.00,,,0.00,WUHU21623XXSP,2013-10-10 15:32:00,
2013-10-10 10:37:00,62.6,48.6,29.93,SE,135,2.5,6.0,60,0.00,,,0.00,WUHU21623XXSP,2013-10-10 15:37:00,
2013-10-10 10:42:00,61.9,47.9,29.93,SSW,202,6.7,6.9,60,0.00,,,0.00,WUHU21623XXSP,2013-10-10 15:42:00,
2013-10-10 10:47:00,62.2,48.7,29.93,SSE,157,2.5,6.9,61,0.00,,,0.00,WUHU21623XXSP,2013-10-10 15:47:00,
2013-10-10 10:52:00,62.8,48.2,29.93,SSE,157,7.8,7.8,59,0.00,,,0.00,WUHU21623XXSP,2013-10-10 15:52:00,
2013-10-10 10:57:00,63.0,48.9,29.93,South,180,0.0,7.8,60,0.00,,,0.00,WUHU21623XXSP,2013-10-10 15:57:00,
2013-10-10 11:02:00,63.7,49.0,29.93,South,180,0.0,6.0,59,0.00,,,0.00,WUHU21623XXSP,2013-10-10 16:02:00,
2013-10-10 11:07:00,63.7,48.6,29.93,South,180,0.0,4.5,58,0.00,,,0.00,WUHU21623XXSP,2013-10-10 16:07:00,
2013-10-10 11:12:00,63.1,49.0,29.93,South,180,0.7,4.5,60,0.00,,,0.00,WUHU21623XXSP,2013-10-10 16:12:00,
2013-10-10 11:17:00,62.8,48.7,29.93,South,180,2.0,6.3,60,0.00,,,0.00,WUHU21623XXSP,2013-10-10 16:17:00,
2013-10-10 11:22:00,62.8,50.0,29.93,SSE,157,1.3,6.3,63,0.00,,,0.00,WUHU21623XXSP,2013-10-10 16:22:00,
2013-10-10 11:27:00,63.1,49.0,29.93,SSE,157,2.9,4.5,60,0.00,,,0.00,WUHU21623XXSP,2013-10-10 16:27:00,
2013-10-10 11:32:00,63.0,49.3,29.93,SSE,157,0.0,7.2,61,0.00,,,0.00,WUHU21623XXSP,2013-10-10 16:32:00,
2013-10-10 11:37:00,63.0,48.9,29.93,SSE,157,0.0,7.2,60,0.00,,,0.00,WUHU21623XXSP,2013-10-10 16:37:00,
2013-10-10 11:42:00,63.5,48.9,29.92,ESE,112,0.7,6.5,59,0.00,,,0.00,WUHU21623XXSP,2013-10-10 16:42:00,
2013-10-10 11:47:00,64.2,50.0,29.92,SSE,157,0.0,6.5,60,0.00,,,0.00,WUHU21623XXSP,2013-10-10 16:47:00,
2013-10-10 11:52:00,64.8,50.1,29.92,SSE,157,0.0,4.7,59,0.00,,,0.00,WUHU21623XXSP,2013-10-10 16:52:00,
2013-10-10 11:57:00,64.9,49.7,29.91,SE,135,2.5,3.6,58,0.00,,,0.00,WUHU21623XXSP,2013-10-10 16:57:00,
2013-10-10 12:02:00,66.0,50.8,29.91,SSE,157,2.7,3.6,58,0.00,,,0.00,WUHU21623XXSP,2013-10-10 17:02:00,
2013-10-10 12:07:00,67.6,50.4,29.91,SE,135,4.0,6.3,54,0.00,,,0.00,WUHU21623XXSP,2013-10-10 17:07:00,
2013-10-10 12:12:00,67.6,49.9,29.91,SE,135,2.2,6.7,53,0.00,,,0.00,WUHU21623XXSP,2013-10-10 17:12:00,
2013-10-10 12:17:00,67.8,50.0,29.91,SSE,157,2.9,8.3,53,0.00,,,0.00,WUHU21623XXSP,2013-10-10 17:17:00,
2013-10-10 12:22:00,68.2,49.9,29.91,SW,225,3.4,8.3,52,0.00,,,0.00,WUHU21623XXSP,2013-10-10 17:22:00,
2013-10-10 12:27:00,68.4,49.5,29.91,SSE,157,6.0,7.4,51,0.00,,,0.00,WUHU21623XXSP,2013-10-10 17:27:00,
2013-10-10 12:32:00,68.7,49.4,29.90,SE,135,0.4,7.6,50,0.00,,,0.00,WUHU21623XXSP,2013-10-10 17:32:00,
2013-10-10 12:37:00,69.1,49.1,29.90,South,180,6.3,7.6,49,0.00,,,0.00,WUHU21623XXSP,2013-10-10 17:37:00,
2013-10-10 12:42:00,68.9,49.5,29.90,ESE,112,1.3,6.5,50,0.00,,,0.00,WUHU21623XXSP,2013-10-10 17:42:00,
2013-10-10 12:47:00,68.9,49.0,29.90,SSE,157,2.7,10.1,49,0.00,,,0.00,WUHU21623XXSP,2013-10-10 17:47:00,
2013-10-10 12:52:00,69.4,49.4,29.90,SE,135,2.2,10.1,49,0.00,,,0.00,WUHU21623XXSP,2013-10-10 17:52:00,
2013-10-10 12:57:00,69.6,50.2,29.90,SSE,157,0.0,6.9,50,0.00,,,0.00,WUHU21623XXSP,2013-10-10 17:57:00,
2013-10-10 13:02:00,69.6,48.4,29.90,SSE,157,7.2,9.2,47,0.00,,,0.00,WUHU21623XXSP,2013-10-10 18:02:00,
2013-10-10 13:07:00,69.6,49.0,29.90,SE,135,6.3,9.2,48,0.00,,,0.00,WUHU21623XXSP,2013-10-10 18:07:00,
2013-10-10 13:12:00,69.6,48.4,29.89,SE,135,3.1,8.7,47,0.00,,,0.00,WUHU21623XXSP,2013-10-10 18:12:00,
2013-10-10 13:17:00,70.2,48.9,29.89,SSE,157,3.4,8.7,47,0.00,,,0.00,WUHU21623XXSP,2013-10-10 18:17:00,
2013-10-10 13:22:00,70.9,49.0,29.89,SSE,157,4.3,8.3,46,0.00,,,0.00,WUHU21623XXSP,2013-10-10 18:22:00,
2013-10-10 13:27:00,71.2,49.3,29.89,SSE,157,1.6,7.6,46,0.00,,,0.00,WUHU21623XXSP,2013-10-10 18:27:00,
2013-10-10 13:32:00,70.9,48.4,29.89,SSW,202,7.8,12.8,45,0.00,,,0.00,WUHU21623XXSP,2013-10-10 18:32:00,
2013-10-10 13:37:00,70.9,49.0,29.89,SSE,157,4.3,12.8,46,0.00,,,0.00,WUHU21623XXSP,2013-10-10 18:37:00,
2013-10-10 13:42:00,70.5,48.0,29.89,SSE,157,4.0,11.6,45,0.00,,,0.00,WUHU21623XXSP,2013-10-10 18:42:00,
2013-10-10 13:47:00,70.3,48.5,29.88,SE,135,3.1,11.6,46,0.00,,,0.00,WUHU21623XXSP,2013-10-10 18:47:00,
2013-10-10 13:52:00,70.3,49.1,29.88,ESE,112,6.7,9.6,47,0.00,,,0.00,WUHU21623XXSP,2013-10-10 18:52:00,
2013-10-10 13:57:00,70.7,48.8,29.88,ESE,112,6.3,9.2,46,0.00,,,0.00,WUHU21623XXSP,2013-10-10 18:57:00,
2013-10-10 14:02:00,70.7,48.8,29.88,SSE,157,3.1,8.1,46,0.00,,,0.00,WUHU21623XXSP,2013-10-10 19:02:00,
2013-10-10 14:07:00,70.3,49.1,29.87,WSW,247,0.0,9.8,47,0.00,,,0.00,WUHU21623XXSP,2013-10-10 19:07:00,
2013-10-10 14:12:00,70.5,48.0,29.87,SSE,157,7.8,9.8,45,0.00,,,0.00,WUHU21623XXSP,2013-10-10 19:12:00,
2013-10-10 14:17:00,70.3,47.9,29.88,SSE,158,5.2,9.4,45,0.00,,,0.00,WUHU21623XXSP,2013-10-10 19:17:00,
2013-10-10 14:22:00,70.0,48.1,29.87,SE,135,5.6,10.5,46,0.00,,,0.00,WUHU21623XXSP,2013-10-10 19:22:00,
2013-10-10 14:27:00,70.3,48.5,29.87,SE,135,3.6,10.5,46,0.00,,,0.00,WUHU21623XXSP,2013-10-10 19:27:00,
2013-10-10 14:32:00,70.2,48.3,29.87,SE,135,4.0,8.9,46,0.00,,,0.00,WUHU21623XXSP,2013-10-10 19:32:00,
2013-10-10 14:37:00,70.3,48.5,29.87,South,180,0.7,8.5,46,0.00,,,0.00,WUHU21623XXSP,2013-10-10 19:37:00,
2013-10-10 14:42:00,70.5,49.2,29.86,SE,135,2.7,5.8,47,0.00,,,0.00,WUHU21623XXSP,2013-10-10 19:42:00,
2013-10-10 14:47:00,70.9,48.4,29.86,South,180,2.9,7.6,45,0.00,,,0.00,WUHU21623XXSP,2013-10-10 19:47:00,
2013-10-10 14:52:00,71.4,49.4,29.86,SSE,157,5.8,7.6,46,0.00,,,0.00,WUHU21623XXSP,2013-10-10 19:52:00,
2013-10-10 14:57:00,71.2,49.3,29.86,SSE,157,3.6,7.2,46,0.00,,,0.00,WUHU21623XXSP,2013-10-10 19:57:00,
2013-10-10 15:02:00,71.4,48.3,29.86,SSE,157,3.6,8.3,44,0.00,,,0.00,WUHU21623XXSP,2013-10-10 20:02:00,
2013-10-10 15:07:00,71.2,48.1,29.86,SSE,157,1.8,8.3,44,0.00,,,0.00,WUHU21623XXSP,2013-10-10 20:07:00,
2013-10-10 15:12:00,70.9,48.4,29.86,SSE,157,1.3,8.1,45,0.00,,,0.00,WUHU21623XXSP,2013-10-10 20:12:00,
2013-10-10 15:17:00,70.7,48.2,29.86,SE,135,1.3,8.7,45,0.00,,,0.00,WUHU21623XXSP,2013-10-10 20:17:00,
2013-10-10 15:22:00,71.1,48.5,29.86,South,180,1.8,8.7,45,0.00,,,0.00,WUHU21623XXSP,2013-10-10 20:22:00,
2013-10-10 15:27:00,71.2,48.7,29.86,SSE,157,2.7,8.3,45,0.00,,,0.00,WUHU21623XXSP,2013-10-10 20:27:00,
2013-10-10 15:31:00,71.4,48.8,29.86,SSE,157,7.8,8.3,45,0.00,,,0.00,WUHU21623XXSP,2013-10-10 20:31:00,
2013-10-10 15:36:00,71.6,49.0,29.85,South,180,1.3,8.1,45,0.00,,,0.00,WUHU21623XXSP,2013-10-10 20:36:00,
2013-10-10 15:41:00,71.8,48.6,29.85,SSE,157,6.9,8.1,44,0.00,,,0.00,WUHU21623XXSP,2013-10-10 20:41:00,
2013-10-10 15:46:00,71.2,48.7,29.85,SSE,157,5.8,8.1,45,0.00,,,0.00,WUHU21623XXSP,2013-10-10 20:46:00,
2013-10-10 15:51:00,71.2,48.7,29.85,SE,135,6.9,8.7,45,0.00,,,0.00,WUHU21623XXSP,2013-10-10 20:51:00,
2013-10-10 15:56:00,71.1,48.5,29.85,South,180,1.8,15.9,45,0.00,,,0.00,WUHU21623XXSP,2013-10-10 20:56:00,
2013-10-10 16:01:00,71.2,48.1,29.85,SSW,202,5.4,15.9,44,0.00,,,0.00,WUHU21623XXSP,2013-10-10 21:01:00,
2013-10-10 16:06:00,71.2,48.7,29.85,WSW,247,5.4,9.6,45,0.00,,,0.00,WUHU21623XXSP,2013-10-10 21:06:00,
2013-10-10 16:11:00,70.9,48.4,29.85,SSE,157,2.2,13.0,45,0.00,,,0.00,WUHU21623XXSP,2013-10-10 21:11:00,
2013-10-10 16:16:00,70.5,47.4,29.85,SSE,157,5.6,13.0,44,0.00,,,0.00,WUHU21623XXSP,2013-10-10 21:16:00,
2013-10-10 16:21:00,70.3,47.9,29.85,WSW,247,7.6,10.3,45,0.00,,,0.00,WUHU21623XXSP,2013-10-10 21:21:00,
2013-10-10 16:26:00,70.3,47.9,29.85,SSE,157,2.5,10.3,45,0.00,,,0.00,WUHU21623XXSP,2013-10-10 21:26:00,
2013-10-10 16:31:00,70.3,47.9,29.85,SSE,157,3.8,10.3,45,0.00,,,0.00,WUHU21623XXSP,2013-10-10 21:31:00,
2013-10-10 16:36:00,70.0,47.6,29.86,SSE,157,1.1,8.3,45,0.00,,,0.00,WUHU21623XXSP,2013-10-10 21:36:00,
2013-10-10 16:41:00,69.1,47.3,29.86,South,180,7.8,7.8,46,0.00,,,0.00,WUHU21623XXSP,2013-10-10 21:41:00,
2013-10-10 16:46:00,68.7,47.6,29.86,SSE,157,8.7,8.7,47,0.00,,,0.00,WUHU21623XXSP,2013-10-10 21:46:00,
2013-10-10 16:51:00,68.4,47.3,29.86,SSE,157,1.1,9.2,47,0.00,,,0.00,WUHU21623XXSP,2013-10-10 21:51:00,
2013-10-10 16:56:00,68.2,46.5,29.86,SSE,157,1.8,9.2,46,0.00,,,0.00,WUHU21623XXSP,2013-10-10 21:56:00,
2013-10-10 17:01:00,67.8,46.8,29.86,SSE,157,6.5,7.8,47,0.00,,,0.00,WUHU21623XXSP,2013-10-10 22:01:00,
2013-10-10 17:06:00,67.8,47.4,29.86,South,180,2.7,7.8,48,0.00,,,0.00,WUHU21623XXSP,2013-10-10 22:06:00,
2013-10-10 17:11:00,67.5,47.7,29.86,SE,135,0.7,5.6,49,0.00,,,0.00,WUHU21623XXSP,2013-10-10 22:11:00,
2013-10-10 17:16:00,67.3,47.5,29.85,SE,135,2.9,5.6,49,0.00,,,0.00,WUHU21623XXSP,2013-10-10 22:16:00,
2013-10-10 17:21:00,67.3,47.5,29.85,SE,144,2.0,8.1,49,0.00,,,0.00,WUHU21623XXSP,2013-10-10 22:21:00,
2013-10-10 17:26:00,67.1,47.3,29.85,SE,142,3.0,9.8,49,0.00,,,0.00,WUHU21623XXSP,2013-10-10 22:26:00,
2013-10-10 17:31:00,67.1,47.3,29.85,SE,135,0.0,9.8,49,0.00,,,0.00,WUHU21623XXSP,2013-10-10 22:31:00,
2013-10-10 17:36:00,66.9,46.6,29.86,SE,135,2.2,11.9,48,0.00,,,0.00,WUHU21623XXSP,2013-10-10 22:36:00,
2013-10-10 17:41:00,66.4,47.3,29.86,SE,135,4.0,11.9,50,0.00,,,0.00,WUHU21623XXSP,2013-10-10 22:41:00,
2013-10-10 17:46:00,66.2,47.6,29.85,SE,135,0.0,6.3,51,0.00,,,0.00,WUHU21623XXSP,2013-10-10 22:46:00,
2013-10-10 17:51:00,66.0,47.9,29.85,ESE,112,0.0,5.1,52,0.00,,,0.00,WUHU21623XXSP,2013-10-10 22:51:00,
2013-10-10 17:56:00,65.7,47.6,29.86,SSE,157,2.7,5.8,52,0.00,,,0.00,WUHU21623XXSP,2013-10-10 22:56:00,
2013-10-10 18:01:00,65.1,47.1,29.86,SE,141,1.5,5.8,52,0.00,,,0.00,WUHU21623XXSP,2013-10-10 23:01:00,
2013-10-10 18:06:00,65.1,47.0,29.86,SSE,157,1.8,8.3,52,0.00,,,0.00,WUHU21623XXSP,2013-10-10 23:06:00,
2013-10-10 18:11:00,64.9,46.8,29.86,NNE,22,0.0,8.3,52,0.00,,,0.00,WUHU21623XXSP,2013-10-10 23:11:00,
2013-10-10 18:16:00,64.6,46.5,29.86,SE,135,0.7,7.4,52,0.00,,,0.00,WUHU21623XXSP,2013-10-10 23:16:00,
2013-10-10 18:21:00,64.2,46.6,29.86,ESE,112,2.0,8.3,53,0.00,,,0.00,WUHU21623XXSP,2013-10-10 23:21:00,
2013-10-10 18:26:00,63.7,47.1,29.86,SE,135,1.8,8.3,55,0.00,,,0.00,WUHU21623XXSP,2013-10-10 23:26:00,
2013-10-10 18:31:00,63.5,46.5,29.86,SE,135,1.8,6.9,54,0.00,,,0.00,WUHU21623XXSP,2013-10-10 23:31:00,
2013-10-10 18:36:00,63.1,47.1,29.86,ESE,112,0.0,5.1,56,0.00,,,0.00,WUHU21623XXSP,2013-10-10 23:36:00,
2013-10-10 18:41:00,62.6,46.8,29.86,SE,135,1.0,4.0,56,0.00,,,0.00,WUHU21623XXSP,2013-10-10 23:41:00,
2013-10-10 18:46:00,62.1,46.1,29.86,SE,135,0.9,4.3,56,0.00,,,0.00,WUHU21623XXSP,2013-10-10 23:46:00,
2013-10-10 18:51:00,62.1,46.1,29.86,SSE,157,6.7,7.2,56,0.00,,,0.00,WUHU21623XXSP,2013-10-10 23:51:00,
2013-10-10 18:56:00,61.9,46.5,29.86,East,90,0.0,7.2,57,0.00,,,0.00,WUHU21623XXSP,2013-10-10 23:56:00,
2013-10-10 19:01:00,61.5,46.1,29.86,SE,135,0.0,6.0,57,0.00,,,0.00,WUHU21623XXSP,2013-10-11 00:01:00,
2013-10-10 19:06:00,61.5,46.6,29.86,SSE,157,0.4,4.0,58,0.00,,,0.00,WUHU21623XXSP,2013-10-11 00:06:00,
2013-10-10 19:11:00,61.5,46.6,29.86,SE,135,0.0,4.7,58,0.00,,,0.00,WUHU21623XXSP,2013-10-11 00:11:00,
2013-10-10 19:16:00,61.5,46.6,29.86,SE,135,0.0,4.7,58,0.00,,,0.00,WUHU21623XXSP,2013-10-11 00:16:00,
2013-10-10 19:21:00,61.0,46.6,29.86,East,90,0.0,3.8,59,0.00,,,0.00,WUHU21623XXSP,2013-10-11 00:21:00,
2013-10-10 19:26:00,60.6,46.8,29.86,SSE,157,1.6,3.8,60,0.00,,,0.00,WUHU21623XXSP,2013-10-11 00:26:00,
2013-10-10 19:31:00,60.4,46.6,29.86,SSE,157,0.0,4.3,60,0.00,,,0.00,WUHU21623XXSP,2013-10-11 00:31:00,
2013-10-10 19:36:00,59.9,46.5,29.86,South,180,3.1,4.3,61,0.00,,,0.00,WUHU21623XXSP,2013-10-11 00:36:00,
2013-10-10 19:41:00,59.5,46.5,29.86,East,90,0.0,3.1,62,0.00,,,0.00,WUHU21623XXSP,2013-10-11 00:41:00,
2013-10-10 19:46:00,59.4,46.3,29.86,ESE,112,2.0,5.1,62,0.00,,,0.00,WUHU21623XXSP,2013-10-11 00:46:00,
2013-10-10 19:51:00,58.8,46.2,29.86,South,180,0.0,5.1,63,0.00,,,0.00,WUHU21623XXSP,2013-10-11 00:51:00,
2013-10-10 19:56:00,58.8,46.2,29.86,SE,135,1.6,6.3,63,0.00,,,0.00,WUHU21623XXSP,2013-10-11 00:56:00,
2013-10-10 20:01:00,58.8,47.0,29.86,ESE,112,1.8,6.3,65,0.00,,,0.00,WUHU21623XXSP,2013-10-11 01:01:00,
2013-10-10 20:06:00,58.3,46.1,29.86,ESE,112,0.0,6.5,64,0.00,,,0.00,WUHU21623XXSP,2013-10-11 01:06:00,
2013-10-10 20:11:00,58.5,46.3,29.87,SE,135,0.0,6.5,64,0.00,,,0.00,WUHU21623XXSP,2013-10-11 01:11:00,
2013-10-10 20:16:00,58.3,46.5,29.87,SE,135,0.0,8.5,65,0.00,,,0.00,WUHU21623XXSP,2013-10-11 01:16:00,
2013-10-10 20:21:00,58.1,46.0,29.87,SE,135,3.1,8.5,64,0.00,,,0.00,WUHU21623XXSP,2013-10-11 01:21:00,
2013-10-10 20:26:00,58.5,46.3,29.87,SE,135,2.2,7.8,64,0.00,,,0.00,WUHU21623XXSP,2013-10-11 01:26:00,
2013-10-10 20:31:00,58.1,46.0,29.87,ESE,112,2.5,7.8,64,0.00,,,0.00,WUHU21623XXSP,2013-10-11 01:31:00,
2013-10-10 20:36:00,57.9,45.8,29.87,SSE,157,2.0,6.9,64,0.00,,,0.00,WUHU21623XXSP,2013-10-11 01:36:00,
2013-10-10 20:41:00,57.7,46.0,29.87,South,180,0.0,6.9,65,0.00,,,0.00,WUHU21623XXSP,2013-10-11 01:41:00,
2013-10-10 20:46:00,57.6,45.4,29.88,ENE,67,1.1,4.9,64,0.00,,,0.00,WUHU21623XXSP,2013-10-11 01:46:00,
2013-10-10 20:51:00,57.7,45.6,29.88,SE,135,3.4,5.6,64,0.00,,,0.00,WUHU21623XXSP,2013-10-11 01:51:00,
2013-10-10 20:56:00,57.4,45.3,29.87,SSE,157,0.0,8.3,64,0.00,,,0.00,WUHU21623XXSP,2013-10-11 01:56:00,
2013-10-10 21:01:00,57.4,45.3,29.87,SE,135,0.4,8.3,64,0.00,,,0.00,WUHU21623XXSP,2013-10-11 02:01:00,
2013-10-10 21:06:00,57.0,44.9,29.88,ENE,67,3.1,7.4,64,0.00,,,0.00,WUHU21623XXSP,2013-10-11 02:06:00,
2013-10-10 21:11:00,57.4,44.9,29.88,SSE,157,0.0,7.4,63,0.00,,,0.00,WUHU21623XXSP,2013-10-11 02:11:00,
2013-10-10 21:16:00,57.0,44.9,29.88,SE,135,2.0,7.4,64,0.00,,,0.00,WUHU21623XXSP,2013-10-11 02:16:00,
2013-10-10 21:21:00,57.0,44.9,29.88,SSE,157,0.0,7.4,64,0.00,,,0.00,WUHU21623XXSP,2013-10-11 02:21:00,
2013-10-10 21:26:00,56.8,44.7,29.88,SE,135,4.3,7.4,64,0.00,,,0.00,WUHU21623XXSP,2013-10-11 02:26:00,
2013-10-10 21:31:00,56.5,44.4,29.88,SSW,202,5.6,7.4,64,0.00,,,0.00,WUHU21623XXSP,2013-10-11 02:31:00,
2013-10-10 21:36:00,56.5,44.4,29.88,SE,135,0.0,8.7,64,0.00,,,0.00,WUHU21623XXSP,2013-10-11 02:36:00,
2013-10-10 21:41:00,56.5,44.4,29.88,South,180,3.1,8.7,64,0.00,,,0.00,WUHU21623XXSP,2013-10-11 02:41:00,
2013-10-10 21:46:00,56.1,44.5,29.88,SE,135,1.6,8.1,65,0.00,,,0.00,WUHU21623XXSP,2013-10-11 02:46:00,
2013-10-10 21:51:00,55.9,44.7,29.88,SSE,157,0.0,5.6,66,0.00,,,0.00,WUHU21623XXSP,2013-10-11 02:51:00,
2013-10-10 21:56:00,55.8,44.5,29.88,SE,135,4.0,4.0,66,0.00,,,0.00,WUHU21623XXSP,2013-10-11 02:56:00,
2013-10-10 22:01:00,55.6,44.4,29.88,ENE,67,2.0,4.3,66,0.00,,,0.00,WUHU21623XXSP,2013-10-11 03:01:00,
2013-10-10 22:06:00,55.6,44.0,29.88,South,180,0.0,4.9,65,0.00,,,0.00,WUHU21623XXSP,2013-10-11 03:06:00,
2013-10-10 22:11:00,55.2,44.0,29.89,SE,135,1.1,8.1,66,0.00,,,0.00,WUHU21623XXSP,2013-10-11 03:11:00,
2013-10-10 22:16:00,55.2,44.0,29.88,South,180,7.8,8.1,66,0.00,,,0.00,WUHU21623XXSP,2013-10-11 03:16:00,
2013-10-10 22:21:00,55.2,43.6,29.88,ESE,112,0.7,7.8,65,0.00,,,0.00,WUHU21623XXSP,2013-10-11 03:21:00,
2013-10-10 22:26:00,55.0,43.8,29.88,SSE,157,0.9,7.2,66,0.00,,,0.00,WUHU21623XXSP,2013-10-11 03:26:00,
2013-10-10 22:31:00,55.2,43.6,29.88,ESE,112,0.0,7.2,65,0.00,,,0.00,WUHU21623XXSP,2013-10-11 03:31:00,
2013-10-10 22:36:00,55.0,44.7,29.88,ESE,112,0.0,4.5,68,0.00,,,0.00,WUHU21623XXSP,2013-10-11 03:36:00,
2013-10-10 22:41:00,54.9,43.7,29.88,SE,135,0.0,3.8,66,0.00,,,0.00,WUHU21623XXSP,2013-10-11 03:41:00,
2013-10-10 22:46:00,55.0,43.8,29.88,ESE,112,1.3,4.0,66,0.00,,,0.00,WUHU21623XXSP,2013-10-11 03:46:00,
2013-10-10 22:51:00,55.0,43.4,29.88,SSE,157,0.0,7.4,65,0.00,,,0.00,WUHU21623XXSP,2013-10-11 03:51:00,
2013-10-10 22:56:00,54.9,43.7,29.88,ESE,112,0.0,7.4,66,0.00,,,0.00,WUHU21623XXSP,2013-10-11 03:56:00,
2013-10-10 23:01:00,55.0,43.8,29.88,ESE,112,0.0,5.8,66,0.00,,,0.00,WUHU21623XXSP,2013-10-11 04:01:00,
2013-10-10 23:02:00,54.9,44.1,29.88,ENE,67,0.0,5.8,67,0.00,,,0.00,WUHU21623XXSP,2013-10-11 04:02:00,
2013-10-10 23:07:00,54.7,44.3,29.88,SE,135,0.0,3.4,68,0.00,,,0.00,WUHU21623XXSP,2013-10-11 04:07:00,
2013-10-10 23:12:00,54.9,44.1,29.88,ESE,112,0.0,3.1,67,0.00,,,0.00,WUHU21623XXSP,2013-10-11 04:12:00,
2013-10-10 23:17:00,54.9,44.1,29.88,SSE,157,0.0,5.1,67,0.00,,,0.00,WUHU21623XXSP,2013-10-11 04:17:00,
2013-10-10 23:22:00,54.7,43.5,29.89,SE,135,0.4,5.1,66,0.00,,,0.00,WUHU21623XXSP,2013-10-11 04:22:00,
2013-10-10 23:27:00,54.7,43.9,29.88,SE,135,3.8,3.8,67,0.00,,,0.00,WUHU21623XXSP,2013-10-11 04:27:00,
2013-10-10 23:32:00,54.5,43.7,29.88,SE,135,0.0,3.8,67,0.00,,,0.00,WUHU21623XXSP,2013-10-11 04:32:00,
2013-10-10 23:37:00,54.1,44.2,29.88,SE,135,0.0,1.3,69,0.00,,,0.00,WUHU21623XXSP,2013-10-11 04:37:00,
2013-10-10 23:42:00,53.6,44.1,29.88,SE,135,0.0,0.0,70,0.00,,,0.00,WUHU21623XXSP,2013-10-11 04:42:00,
2013-10-10 23:47:00,53.4,43.5,29.88,SE,135,0.0,0.0,69,0.00,,,0.00,WUHU21623XXSP,2013-10-11 04:47:00,
2013-10-10 23:52:00,53.4,43.5,29.89,SE,135,0.0,1.1,69,0.00,,,0.00,WUHU21623XXSP,2013-10-11 04:52:00,
2013-10-10 23:57:00,53.2,43.7,29.88,SE,135,0.0,1.1,70,0.00,,,0.00,WUHU21623XXSP,2013-10-11 04:57:00,